Time;durP1;ratioP1;P1;durP2;ratioP2;P2;SDS_P1;SDS_P2;PMS_P1;PMS_P2;Temp;Humidity;BMP_temperature;BMP_pressure;BME280_temperature;BME280_humidity;BME280_pressure;Samples;Min_cycle;Max_cycle;Signal;HPM_P1;HPM_P2
2021/09/18 00:01:49;;;;;;;;;;;24.30;59.20;;;;;;5074227;28;20337;-58
2021/09/18 00:04:16;;;;;;;;;;;24.30;59.20;;;;;;5073237;28;20032;-58
2021/09/18 00:06:43;;;;;;;;;;;24.30;59.20;;;;;;5075206;28;19924;-59
2021/09/18 00:09:10;;;;;;;;;;;24.30;59.20;;;;;;5057841;28;19971;-59
2021/09/18 00:11:36;;;;;;;;;;;24.30;59.70;;;;;;5073715;28;20008;-59
2021/09/18 00:14:04;;;;;;;;;;;24.30;59.20;;;;;;5088920;28;19924;-59
2021/09/18 00:16:31;;;;;;;;;;;24.30;59.20;;;;;;5065080;28;19925;-58
2021/09/18 00:18:58;;;;;;;;;;;24.30;59.20;;;;;;5058116;28;19925;-59
2021/09/18 00:21:25;;;;;;;;;;;24.30;59.20;;;;;;5069466;28;20084;-59
2021/09/18 00:23:54;;;;;;;;;;;24.30;59.20;;;;;;5074480;28;19928;-59
2021/09/18 00:26:21;;;;;;;;;;;24.30;59.20;;;;;;5063569;28;19925;-58
2021/09/18 00:28:48;;;;;;;;;;;24.30;59.20;;;;;;5066005;28;19967;-58
2021/09/18 00:31:15;;;;;;;;;;;24.30;59.20;;;;;;5073339;28;19964;-58
2021/09/18 00:33:42;;;;;;;;;;;24.30;59.30;;;;;;5073146;28;19947;-59
2021/09/18 00:36:09;;;;;;;;;;;24.30;59.30;;;;;;5073405;28;19946;-57
2021/09/18 00:38:36;;;;;;;;;;;24.30;59.20;;;;;;5076015;28;19931;-58
2021/09/18 00:41:03;;;;;;;;;;;24.30;59.20;;;;;;5073228;28;20010;-59
2021/09/18 00:43:30;;;;;;;;;;;24.30;59.30;;;;;;5074262;28;20970;-58
2021/09/18 00:45:57;;;;;;;;;;;24.30;59.30;;;;;;5073092;28;19936;-59
2021/09/18 00:48:24;;;;;;;;;;;24.30;59.30;;;;;;5074153;28;19932;-59
2021/09/18 00:50:51;;;;;;;;;;;24.30;59.30;;;;;;5074217;28;20447;-59
2021/09/18 00:53:18;;;;;;;;;;;24.30;59.30;;;;;;5074311;28;19974;-59
2021/09/18 00:55:45;;;;;;;;;;;24.30;59.30;;;;;;5073244;28;19986;-59
2021/09/18 00:58:12;;;;;;;;;;;24.30;59.30;;;;;;5072632;28;19998;-59
2021/09/18 01:00:39;;;;;;;;;;;24.30;59.30;;;;;;5056138;28;19964;-59
2021/09/18 01:03:06;;;;;;;;;;;24.20;59.30;;;;;;5073985;28;19924;-59
2021/09/18 01:05:35;;;;;;;;;;;24.20;59.20;;;;;;5073869;28;19967;-59
2021/09/18 01:08:02;;;;;;;;;;;24.20;59.30;;;;;;5073019;28;19925;-59
2021/09/18 01:10:29;;;;;;;;;;;24.20;59.30;;;;;;5074226;28;19932;-59
2021/09/18 01:13:18;;;;;;;;;;;24.20;59.30;;;;;;5061052;28;19932;-59
2021/09/18 01:15:45;;;;;;;;;;;24.20;59.30;;;;;;5072389;28;20028;-59
2021/09/18 01:18:12;;;;;;;;;;;24.20;59.30;;;;;;5059882;28;19925;-59
2021/09/18 01:20:41;;;;;;;;;;;24.20;59.30;;;;;;5057299;28;19924;-59
2021/09/18 01:23:09;;;;;;;;;;;24.20;59.30;;;;;;5057271;28;20304;-59
2021/09/18 01:25:37;;;;;;;;;;;24.20;59.30;;;;;;5069643;28;19931;-59
2021/09/18 01:28:05;;;;;;;;;;;24.20;59.30;;;;;;5105792;27;19925;-59
2021/09/18 01:30:33;;;;;;;;;;;24.20;59.30;;;;;;5072549;28;19939;-59
2021/09/18 01:33:01;;;;;;;;;;;24.20;59.30;;;;;;5073502;28;19931;-59
2021/09/18 01:35:28;;;;;;;;;;;24.20;59.30;;;;;;5071636;28;19925;-59
2021/09/18 01:37:55;;;;;;;;;;;24.20;59.30;;;;;;5071223;28;19951;-59
2021/09/18 01:40:23;;;;;;;;;;;24.20;59.30;;;;;;5067410;28;20369;-59
2021/09/18 01:42:51;;;;;;;;;;;24.20;59.30;;;;;;5055897;28;19948;-59
2021/09/18 01:45:18;;;;;;;;;;;24.20;59.30;;;;;;5055811;28;19929;-59
2021/09/18 01:47:58;;;;;;;;;;;24.20;59.30;;;;;;5057352;28;19976;-58
2021/09/18 01:50:25;;;;;;;;;;;24.20;59.30;;;;;;5061162;28;19982;-59
2021/09/18 01:52:53;;;;;;;;;;;24.20;59.30;;;;;;5076709;28;19924;-58
2021/09/18 01:55:21;;;;;;;;;;;24.20;59.30;;;;;;5086125;28;20334;-58
2021/09/18 01:57:50;;;;;;;;;;;24.10;59.20;;;;;;5071945;28;19925;-59
2021/09/18 02:00:17;;;;;;;;;;;24.20;59.30;;;;;;5073614;28;19924;-57
2021/09/18 02:02:45;;;;;;;;;;;24.20;59.30;;;;;;5072294;28;20288;-59
2021/09/18 02:05:13;;;;;;;;;;;24.10;59.20;;;;;;5054745;28;19924;-58
2021/09/18 02:07:40;;;;;;;;;;;24.10;59.20;;;;;;5073410;28;19925;-59
2021/09/18 02:10:08;;;;;;;;;;;24.10;59.20;;;;;;5091293;28;19931;-59
2021/09/18 02:12:35;;;;;;;;;;;24.10;59.20;;;;;;5054677;28;19936;-58
2021/09/18 02:15:05;;;;;;;;;;;24.10;59.10;;;;;;5072897;28;20019;-59
2021/09/18 02:17:32;;;;;;;;;;;24.10;59.20;;;;;;5072926;28;19925;-59
2021/09/18 02:19:59;;;;;;;;;;;24.10;59.10;;;;;;5057813;28;19931;-59
2021/09/18 02:22:26;;;;;;;;;;;24.10;59.70;;;;;;5072021;28;20380;-58
2021/09/18 02:24:53;;;;;;;;;;;24.10;59.10;;;;;;5071949;28;19925;-59
2021/09/18 02:27:20;;;;;;;;;;;24.10;59.10;;;;;;5071512;28;19928;-59
2021/09/18 02:29:47;;;;;;;;;;;24.10;59.10;;;;;;5061608;28;19936;-58
2021/09/18 02:32:14;;;;;;;;;;;24.10;59.10;;;;;;5066477;28;19924;-58
2021/09/18 02:34:41;;;;;;;;;;;24.10;59.10;;;;;;5063557;28;20266;-59
2021/09/18 02:37:08;;;;;;;;;;;24.10;59.10;;;;;;5066091;28;20388;-59
2021/09/18 02:39:35;;;;;;;;;;;24.10;59.10;;;;;;5074097;28;19929;-59
2021/09/18 02:42:02;;;;;;;;;;;24.10;59.10;;;;;;5076591;28;19931;-59
2021/09/18 02:44:29;;;;;;;;;;;24.10;59.10;;;;;;5075323;28;19930;-59
2021/09/18 02:46:56;;;;;;;;;;;24.10;59.00;;;;;;5071980;28;19999;-59
2021/09/18 02:49:23;;;;;;;;;;;24.10;59.10;;;;;;5059160;28;19932;-59
2021/09/18 02:51:50;;;;;;;;;;;24.10;59.10;;;;;;5062697;28;19933;-59
2021/09/18 02:54:17;;;;;;;;;;;24.10;59.00;;;;;;5076228;28;19982;-58
2021/09/18 02:56:44;;;;;;;;;;;24.10;59.00;;;;;;5076789;28;20387;-58
2021/09/18 02:59:11;;;;;;;;;;;24.10;59.00;;;;;;5093574;28;19947;-57
2021/09/18 03:01:38;;;;;;;;;;;24.10;59.00;;;;;;5076385;28;19929;-58
2021/09/18 03:04:05;;;;;;;;;;;24.10;59.00;;;;;;5056539;28;20003;-59
2021/09/18 03:06:33;;;;;;;;;;;24.10;59.00;;;;;;5093245;28;19924;-58
2021/09/18 03:08:59;;;;;;;;;;;24.10;59.00;;;;;;5075608;28;19974;-59
2021/09/18 03:11:26;;;;;;;;;;;24.10;59.00;;;;;;5075947;28;19929;-57
2021/09/18 03:13:53;;;;;;;;;;;24.10;59.00;;;;;;5076539;28;19931;-59
2021/09/18 03:16:21;;;;;;;;;;;24.10;59.00;;;;;;5076065;28;19932;-59
2021/09/18 03:18:48;;;;;;;;;;;24.10;59.00;;;;;;5075747;28;19974;-58
2021/09/18 03:21:15;;;;;;;;;;;24.10;59.00;;;;;;5074447;28;20069;-57
2021/09/18 03:23:42;;;;;;;;;;;24.10;59.00;;;;;;5087443;28;19927;-59
2021/09/18 03:26:09;;;;;;;;;;;24.10;59.00;;;;;;5081791;28;20291;-58
2021/09/18 03:28:36;;;;;;;;;;;24.10;59.00;;;;;;5074263;28;19929;-58
2021/09/18 03:31:03;;;;;;;;;;;24.10;59.00;;;;;;5075809;28;19924;-58
2021/09/18 03:33:30;;;;;;;;;;;24.10;59.00;;;;;;5074279;28;19934;-59
2021/09/18 03:35:57;;;;;;;;;;;24.10;58.90;;;;;;5067703;28;19979;-59
2021/09/18 03:38:24;;;;;;;;;;;24.10;58.90;;;;;;5064994;28;19924;-59
2021/09/18 03:40:51;;;;;;;;;;;24.10;58.90;;;;;;5074579;28;19979;-59
2021/09/18 03:43:18;;;;;;;;;;;24.10;58.90;;;;;;5075779;28;19949;-59
2021/09/18 03:45:45;;;;;;;;;;;24.10;58.90;;;;;;5078434;28;19939;-59
2021/09/18 03:48:12;;;;;;;;;;;24.10;58.90;;;;;;5088300;28;20015;-59
2021/09/18 03:50:39;;;;;;;;;;;24.10;58.90;;;;;;5059286;28;20312;-58
2021/09/18 03:53:06;;;;;;;;;;;24.10;58.80;;;;;;5075510;28;19977;-59
2021/09/18 03:55:33;;;;;;;;;;;24.10;58.90;;;;;;5057619;28;19932;-59
2021/09/18 03:58:00;;;;;;;;;;;24.10;58.80;;;;;;5057675;28;19932;-59
2021/09/18 04:00:27;;;;;;;;;;;24.10;58.80;;;;;;5074866;28;19925;-59
2021/09/18 04:02:54;;;;;;;;;;;24.10;58.80;;;;;;5074488;28;19947;-59
2021/09/18 04:05:21;;;;;;;;;;;24.10;58.90;;;;;;5072106;28;20318;-59
2021/09/18 04:07:48;;;;;;;;;;;24.10;58.80;;;;;;5072631;28;19925;-59
2021/09/18 04:10:15;;;;;;;;;;;24.10;58.80;;;;;;5060357;28;19929;-59
2021/09/18 04:12:42;;;;;;;;;;;24.10;58.80;;;;;;5070961;28;20006;-59
2021/09/18 04:15:10;;;;;;;;;;;24.10;58.70;;;;;;5075072;28;20320;-59
2021/09/18 04:17:37;;;;;;;;;;;24.10;58.70;;;;;;5074439;28;19925;-59
2021/09/18 04:20:05;;;;;;;;;;;24.10;58.70;;;;;;5074691;28;20022;-58
2021/09/18 04:22:32;;;;;;;;;;;24.10;58.70;;;;;;5074899;28;19925;-59
2021/09/18 04:24:59;;;;;;;;;;;24.10;58.70;;;;;;5074212;28;19960;-56
2021/09/18 04:27:26;;;;;;;;;;;24.10;58.70;;;;;;5065119;28;20020;-59
2021/09/18 04:29:53;;;;;;;;;;;24.10;58.70;;;;;;5058600;28;20273;-59
2021/09/18 04:32:20;;;;;;;;;;;24.10;58.70;;;;;;5064350;28;19929;-59
2021/09/18 04:34:47;;;;;;;;;;;24.00;58.60;;;;;;5069647;28;19936;-59
2021/09/18 04:37:14;;;;;;;;;;;24.10;58.70;;;;;;5058404;28;19932;-59
2021/09/18 04:39:41;;;;;;;;;;;24.00;58.50;;;;;;5058032;28;19978;-59
2021/09/18 04:42:08;;;;;;;;;;;24.10;58.60;;;;;;5060154;28;19966;-59
2021/09/18 04:44:35;;;;;;;;;;;24.00;58.50;;;;;;5075321;28;19924;-59
2021/09/18 04:47:02;;;;;;;;;;;24.10;58.60;;;;;;5090492;28;19924;-59
2021/09/18 04:49:29;;;;;;;;;;;24.00;58.50;;;;;;5073251;28;19933;-59
2021/09/18 04:51:56;;;;;;;;;;;24.00;58.50;;;;;;5057140;28;20296;-59
2021/09/18 04:54:23;;;;;;;;;;;24.10;58.50;;;;;;5072643;28;19924;-58
2021/09/18 04:56:50;;;;;;;;;;;24.00;58.40;;;;;;5090657;28;19969;-58
2021/09/18 04:59:17;;;;;;;;;;;24.10;58.50;;;;;;5070689;28;19970;-59
2021/09/18 05:01:44;;;;;;;;;;;24.10;58.50;;;;;;5073944;28;19924;-59
2021/09/18 05:04:12;;;;;;;;;;;24.10;58.50;;;;;;5073648;28;19983;-58
2021/09/18 05:06:39;;;;;;;;;;;24.10;58.50;;;;;;5071433;28;20376;-56
2021/09/18 05:09:06;;;;;;;;;;;24.10;58.50;;;;;;5073757;28;19928;-58
2021/09/18 05:11:33;;;;;;;;;;;24.10;58.50;;;;;;5072528;28;19924;-59
2021/09/18 05:14:00;;;;;;;;;;;24.10;58.40;;;;;;5073703;28;19995;-59
2021/09/18 05:16:27;;;;;;;;;;;24.10;58.40;;;;;;5064019;28;20030;-58
2021/09/18 05:18:54;;;;;;;;;;;24.10;58.40;;;;;;5066270;28;19924;-59
2021/09/18 05:21:21;;;;;;;;;;;24.10;58.40;;;;;;5064169;28;19925;-59
2021/09/18 05:23:52;;;;;;;;;;;24.10;58.30;;;;;;5057277;28;19925;-59
2021/09/18 05:26:19;;;;;;;;;;;24.10;58.30;;;;;;5056904;28;20406;-59
2021/09/18 05:28:46;;;;;;;;;;;24.10;58.30;;;;;;5061715;28;19997;-59
2021/09/18 05:31:13;;;;;;;;;;;24.10;58.20;;;;;;5072224;28;19924;-58
2021/09/18 05:33:40;;;;;;;;;;;24.10;58.20;;;;;;5073768;28;19924;-59
2021/09/18 05:36:07;;;;;;;;;;;24.10;58.10;;;;;;5072349;28;19938;-59
2021/09/18 05:38:34;;;;;;;;;;;24.10;58.10;;;;;;5071995;28;19931;-59
2021/09/18 05:41:01;;;;;;;;;;;24.10;58.00;;;;;;5073464;28;19925;-59
2021/09/18 05:43:28;;;;;;;;;;;24.10;58.10;;;;;;5073565;28;20421;-59
2021/09/18 05:45:55;;;;;;;;;;;24.10;58.00;;;;;;5055260;28;19925;-59
2021/09/18 05:48:22;;;;;;;;;;;24.20;58.10;;;;;;5056141;28;19932;-59
2021/09/18 05:50:49;;;;;;;;;;;24.20;58.00;;;;;;5072731;28;19924;-59
2021/09/18 05:53:16;;;;;;;;;;;24.20;58.00;;;;;;5073633;28;19935;-59
2021/09/18 05:55:43;;;;;;;;;;;24.20;57.90;;;;;;5103264;28;19925;-58
2021/09/18 05:58:10;;;;;;;;;;;24.20;57.90;;;;;;5073285;28;20288;-59
2021/09/18 06:00:37;;;;;;;;;;;24.20;57.80;;;;;;5072061;28;19928;-59
2021/09/18 06:03:04;;;;;;;;;;;24.20;57.80;;;;;;5073296;28;19924;-59
2021/09/18 06:05:32;;;;;;;;;;;24.20;57.80;;;;;;5060459;28;20360;-59
2021/09/18 06:07:59;;;;;;;;;;;24.20;57.80;;;;;;5067078;28;19924;-59
2021/09/18 06:10:26;;;;;;;;;;;24.20;57.70;;;;;;5073187;28;19930;-58
2021/09/18 06:12:53;;;;;;;;;;;24.20;57.70;;;;;;5073150;28;20372;-58
2021/09/18 06:15:20;;;;;;;;;;;24.30;57.80;;;;;;5075615;28;19929;-58
2021/09/18 06:17:47;;;;;;;;;;;24.30;57.80;;;;;;5069255;28;19924;-58
2021/09/18 06:20:14;;;;;;;;;;;24.30;57.70;;;;;;5067555;28;20439;-58
2021/09/18 06:22:41;;;;;;;;;;;24.30;57.60;;;;;;5077056;28;19925;-58
2021/09/18 06:25:11;;;;;;;;;;;24.30;57.60;;;;;;5076998;28;19932;-59
2021/09/18 06:27:39;;;;;;;;;;;24.30;57.60;;;;;;5075585;28;19931;-58
2021/09/18 06:30:07;;;;;;;;;;;24.30;57.60;;;;;;5073556;28;19928;-58
2021/09/18 06:32:34;;;;;;;;;;;24.30;57.50;;;;;;5061685;28;19931;-58
2021/09/18 06:35:03;;;;;;;;;;;24.30;57.50;;;;;;5076864;28;19931;-59
2021/09/18 06:37:32;;;;;;;;;;;24.30;57.50;;;;;;5076688;28;19924;-58
2021/09/18 06:39:59;;;;;;;;;;;24.40;57.50;;;;;;5075547;28;19970;-58
2021/09/18 06:42:26;;;;;;;;;;;24.40;57.50;;;;;;5076803;28;20019;-58
2021/09/18 06:44:53;;;;;;;;;;;24.40;57.50;;;;;;5076499;28;19931;-59
2021/09/18 06:47:20;;;;;;;;;;;24.40;57.50;;;;;;5075040;28;19924;-58
2021/09/18 06:49:47;;;;;;;;;;;24.40;57.50;;;;;;5074014;28;19936;-58
2021/09/18 06:52:14;;;;;;;;;;;24.40;57.50;;;;;;5075241;28;19924;-58
2021/09/18 06:54:43;;;;;;;;;;;24.40;57.50;;;;;;5090861;28;19924;-59
2021/09/18 06:57:11;;;;;;;;;;;24.40;57.40;;;;;;5077361;28;19925;-58
2021/09/18 06:59:39;;;;;;;;;;;24.40;57.40;;;;;;5076111;28;19999;-59
2021/09/18 07:02:06;;;;;;;;;;;24.40;57.40;;;;;;5076317;28;20494;-58
2021/09/18 07:04:34;;;;;;;;;;;24.40;57.40;;;;;;5074848;28;19924;-58
2021/09/18 07:07:01;;;;;;;;;;;24.40;57.40;;;;;;5064314;28;19925;-57
2021/09/18 07:09:28;;;;;;;;;;;24.40;57.40;;;;;;5069600;28;19925;-58
2021/09/18 07:11:55;;;;;;;;;;;24.40;57.40;;;;;;5064956;28;19924;-58
2021/09/18 07:14:22;;;;;;;;;;;24.40;57.40;;;;;;5076958;28;19924;-58
2021/09/18 07:16:49;;;;;;;;;;;24.40;57.40;;;;;;5083526;28;19968;-58
2021/09/18 07:19:16;;;;;;;;;;;24.40;57.30;;;;;;5066321;28;19929;-59
2021/09/18 07:21:43;;;;;;;;;;;24.40;57.30;;;;;;5074434;28;19977;-58
2021/09/18 07:24:10;;;;;;;;;;;24.40;57.30;;;;;;5079715;28;19931;-59
2021/09/18 07:26:37;;;;;;;;;;;24.40;57.20;;;;;;5086945;28;19947;-58
2021/09/18 07:29:04;;;;;;;;;;;24.50;57.30;;;;;;5075947;28;20406;-59
2021/09/18 07:31:32;;;;;;;;;;;24.50;57.20;;;;;;5074302;28;19931;-58
2021/09/18 07:33:59;;;;;;;;;;;24.50;57.10;;;;;;5076099;28;19924;-58
2021/09/18 07:36:26;;;;;;;;;;;24.50;57.10;;;;;;5075733;28;19924;-58
2021/09/18 07:38:53;;;;;;;;;;;24.60;57.20;;;;;;5075880;28;19982;-58
2021/09/18 07:41:20;;;;;;;;;;;24.60;57.10;;;;;;5075033;28;19925;-59
2021/09/18 07:43:47;;;;;;;;;;;24.60;57.10;;;;;;5074233;28;19971;-58
2021/09/18 07:46:14;;;;;;;;;;;24.60;57.00;;;;;;5073273;28;19924;-58
2021/09/18 07:48:41;;;;;;;;;;;24.60;56.90;;;;;;5073122;28;19924;-58
2021/09/18 07:51:08;;;;;;;;;;;24.60;56.90;;;;;;5075230;28;20434;-58
2021/09/18 07:53:35;;;;;;;;;;;24.60;56.80;;;;;;5073898;28;19978;-58
2021/09/18 07:56:02;;;;;;;;;;;24.70;56.80;;;;;;5075058;28;19938;-58
2021/09/18 07:58:29;;;;;;;;;;;24.60;56.60;;;;;;5062334;28;19931;-58
2021/09/18 08:00:56;;;;;;;;;;;24.70;56.70;;;;;;5102978;27;19943;-58
2021/09/18 08:03:23;;;;;;;;;;;24.70;56.70;;;;;;5074142;28;19928;-58
2021/09/18 08:05:51;;;;;;;;;;;24.80;56.60;;;;;;5072485;28;19924;-58
2021/09/18 08:08:18;;;;;;;;;;;24.80;56.50;;;;;;5064605;28;20440;-58
2021/09/18 08:10:45;;;;;;;;;;;24.80;56.30;;;;;;5099069;27;19924;-58
2021/09/18 08:13:12;;;;;;;;;;;24.80;56.30;;;;;;5075079;28;19931;-58
2021/09/18 08:15:39;;;;;;;;;;;24.80;56.20;;;;;;5081131;28;19969;-58
2021/09/18 08:18:06;;;;;;;;;;;24.90;56.20;;;;;;5081896;28;20281;-59
2021/09/18 08:20:33;;;;;;;;;;;24.90;56.00;;;;;;5073680;28;20288;-59
2021/09/18 08:23:00;;;;;;;;;;;24.90;56.00;;;;;;5073604;28;20426;-59
2021/09/18 08:25:27;;;;;;;;;;;24.90;55.90;;;;;;5072064;28;19924;-59
2021/09/18 08:27:55;;;;;;;;;;;24.90;55.90;;;;;;5057076;28;19924;-58
2021/09/18 08:30:23;;;;;;;;;;;25.00;55.80;;;;;;5058644;28;19983;-58
2021/09/18 08:32:51;;;;;;;;;;;25.00;55.70;;;;;;5075956;28;20007;-59
2021/09/18 08:35:18;;;;;;;;;;;25.00;55.70;;;;;;5074909;28;19931;-58
2021/09/18 08:37:45;;;;;;;;;;;25.10;55.60;;;;;;5073237;28;19932;-59
2021/09/18 08:40:12;;;;;;;;;;;25.10;55.50;;;;;;5072513;28;19932;-58
2021/09/18 08:42:40;;;;;;;;;;;25.10;55.50;;;;;;5073663;28;19930;-58
2021/09/18 08:45:10;;;;;;;;;;;25.10;55.30;;;;;;5073469;28;20273;-57
2021/09/18 08:47:37;;;;;;;;;;;25.10;55.30;;;;;;5058437;28;19936;-58
2021/09/18 08:50:05;;;;;;;;;;;25.10;55.30;;;;;;5073104;28;20003;-58
2021/09/18 08:52:33;;;;;;;;;;;25.20;55.30;;;;;;5074018;28;19931;-58
2021/09/18 08:55:01;;;;;;;;;;;25.20;55.30;;;;;;5073931;28;20433;-58
2021/09/18 08:57:28;;;;;;;;;;;25.10;55.20;;;;;;5072565;28;19924;-58
2021/09/18 08:59:55;;;;;;;;;;;25.20;55.30;;;;;;5062967;28;20343;-58
2021/09/18 09:02:30;;;;;;;;;;;25.20;55.30;;;;;;5099362;28;20306;-59
2021/09/18 09:05:03;;;;;;;;;;;25.20;55.40;;;;;;5072773;28;19947;-58
2021/09/18 09:07:30;;;;;;;;;;;25.20;55.40;;;;;;5073046;28;19983;-58
2021/09/18 09:10:01;;;;;;;;;;;25.10;55.40;;;;;;5073818;28;19925;-58
2021/09/18 09:12:36;;;;;;;;;;;25.10;55.50;;;;;;5072497;28;19974;-58
2021/09/18 09:15:05;;;;;;;;;;;25.10;55.50;;;;;;5064592;28;20031;-58
2021/09/18 09:17:33;;;;;;;;;;;25.10;55.60;;;;;;5057222;28;20355;-59
2021/09/18 09:20:03;;;;;;;;;;;25.00;55.70;;;;;;5065080;28;19924;-58
2021/09/18 09:23:02;;;;;;;;;;;25.00;55.80;;;;;;5066667;28;19925;-58
2021/09/18 09:25:31;;;;;;;;;;;25.00;55.90;;;;;;5024405;28;20437;-59
2021/09/18 09:27:59;;;;;;;;;;;25.00;55.90;;;;;;5030048;28;19975;-59
2021/09/18 09:30:31;;;;;;;;;;;25.00;56.20;;;;;;5030216;28;19925;-58
2021/09/18 09:33:08;;;;;;;;;;;24.90;55.90;;;;;;5030247;28;19925;-57
2021/09/18 09:35:36;;;;;;;;;;;24.90;56.00;;;;;;5030117;28;20437;-57
2021/09/18 09:38:04;;;;;;;;;;;24.90;56.00;;;;;;5030034;28;19964;-59
2021/09/18 09:40:33;;;;;;;;;;;24.90;56.10;;;;;;5030014;28;19925;-58
2021/09/18 09:43:01;;;;;;;;;;;24.90;56.10;;;;;;5029905;28;20266;-58
2021/09/18 09:45:28;;;;;;;;;;;24.90;56.20;;;;;;5029983;28;19929;-57
2021/09/18 09:48:06;;;;;;;;;;;24.90;56.20;;;;;;5029867;28;20068;-58
2021/09/18 09:50:34;;;;;;;;;;;24.90;56.30;;;;;;5032774;28;19925;-58
2021/09/18 09:53:02;;;;;;;;;;;24.90;56.30;;;;;;5034097;28;19991;-58
2021/09/18 09:55:33;;;;;;;;;;;24.90;56.30;;;;;;5035645;28;19925;-58
2021/09/18 09:58:02;;;;;;;;;;;24.90;56.20;;;;;;5034069;28;19952;-59
2021/09/18 10:00:40;;;;;;;;;;;24.90;56.20;;;;;;5033865;28;19979;-58
2021/09/18 10:03:07;;;;;;;;;;;24.90;56.20;;;;;;5073439;28;20403;-58
2021/09/18 10:05:36;;;;;;;;;;;24.90;56.10;;;;;;5059403;28;19925;-58
2021/09/18 10:08:03;;;;;;;;;;;24.90;56.10;;;;;;5061013;28;19951;-59
2021/09/18 10:10:31;;;;;;;;;;;24.90;56.10;;;;;;5059802;28;19977;-58
2021/09/18 10:12:58;;;;;;;;;;;24.90;56.20;;;;;;5059531;28;19928;-58
2021/09/18 10:15:27;;;;;;;;;;;24.90;56.20;;;;;;5059897;28;19994;-58
2021/09/18 10:17:56;;;;;;;;;;;24.90;56.20;;;;;;5057935;28;19960;-58
2021/09/18 10:25:38;;;;;;;;;;;25.00;56.10;;;;;;5076430;28;19925;-58
2021/09/18 10:28:08;;;;;;;;;;;25.00;56.10;;;;;;5074769;28;20313;-59
2021/09/18 10:30:46;;;;;;;;;;;25.00;56.10;;;;;;5094025;28;20026;-58
2021/09/18 10:33:32;;;;;;;;;;;25.00;56.10;;;;;;5077216;28;20046;-58
2021/09/18 10:36:10;;;;;;;;;;;25.10;56.00;;;;;;5060089;28;20354;-54
2021/09/18 10:38:41;;;;;;;;;;;25.10;55.90;;;;;;5060223;28;19932;-58
2021/09/18 10:41:13;;;;;;;;;;;25.10;55.80;;;;;;5058529;28;19936;-58
2021/09/18 10:43:42;;;;;;;;;;;25.10;55.90;;;;;;5059498;28;19932;-58
2021/09/18 10:46:10;;;;;;;;;;;25.10;56.00;;;;;;5093150;28;19928;-58
2021/09/18 10:48:40;;;;;;;;;;;25.10;55.90;;;;;;5059126;28;20397;-58
2021/09/18 10:51:07;;;;;;;;;;;25.10;55.90;;;;;;5061812;28;20372;-58
2021/09/18 10:53:53;;;;;;;;;;;25.10;55.90;;;;;;5075565;28;20352;-58
2021/09/18 10:56:20;;;;;;;;;;;25.10;55.90;;;;;;5075283;28;20328;-58
2021/09/18 10:59:06;;;;;;;;;;;25.20;55.70;;;;;;5074371;28;19970;-58
2021/09/18 11:01:33;;;;;;;;;;;25.20;56.30;;;;;;5075765;28;19924;-59
2021/09/18 11:04:00;;;;;;;;;;;25.30;55.60;;;;;;5058652;28;19979;-58
2021/09/18 11:06:35;;;;;;;;;;;25.30;55.40;;;;;;5092656;28;19936;-58
2021/09/18 11:09:03;;;;;;;;;;;25.30;55.40;;;;;;5056247;28;20007;-58
2021/09/18 11:11:30;;;;;;;;;;;25.30;55.30;;;;;;5075030;28;19924;-58
2021/09/18 11:13:58;;;;;;;;;;;25.30;55.20;;;;;;5076114;28;20020;-58
2021/09/18 11:16:25;;;;;;;;;;;25.30;55.80;;;;;;5076026;28;19931;-58
2021/09/18 11:18:57;;;;;;;;;;;25.30;55.10;;;;;;5074617;28;19924;-58
2021/09/18 11:21:28;;;;;;;;;;;25.40;55.00;;;;;;5075735;28;19925;-58
2021/09/18 11:24:02;;;;;;;;;;;25.40;55.00;;;;;;5075931;28;19974;-58
2021/09/18 11:26:41;;;;;;;;;;;25.40;55.00;;;;;;5075384;28;20388;-58
2021/09/18 11:29:09;;;;;;;;;;;25.40;55.00;;;;;;5061603;28;19982;-58
2021/09/18 11:31:37;;;;;;;;;;;25.40;54.90;;;;;;5072803;28;19954;-58
2021/09/18 11:34:04;;;;;;;;;;;25.40;54.90;;;;;;5063312;28;19947;-58
2021/09/18 11:36:42;;;;;;;;;;;25.40;54.80;;;;;;5059512;28;19974;-59
2021/09/18 11:39:08;;;;;;;;;;;25.40;54.80;;;;;;5071815;28;19991;-59
2021/09/18 11:41:35;;;;;;;;;;;25.50;54.70;;;;;;5064441;28;19971;-58
2021/09/18 11:44:11;;;;;;;;;;;25.50;54.70;;;;;;5069635;28;20015;-58
2021/09/18 11:46:39;;;;;;;;;;;25.50;54.80;;;;;;5073910;28;20015;-58
2021/09/18 11:49:08;;;;;;;;;;;25.50;54.80;;;;;;5065852;28;19924;-59
2021/09/18 11:51:35;;;;;;;;;;;25.50;54.90;;;;;;5067011;28;19928;-58
2021/09/18 11:54:04;;;;;;;;;;;25.40;54.80;;;;;;5066340;28;19931;-58
2021/09/18 11:56:31;;;;;;;;;;;25.40;54.80;;;;;;5059463;28;19924;-58
2021/09/18 11:59:07;;;;;;;;;;;25.40;54.80;;;;;;5065051;28;19928;-59
2021/09/18 12:01:35;;;;;;;;;;;25.40;54.80;;;;;;5081851;28;20642;-58
2021/09/18 12:04:02;;;;;;;;;;;25.40;54.80;;;;;;5079252;28;19924;-58
2021/09/18 12:06:30;;;;;;;;;;;25.40;54.90;;;;;;5064712;28;19925;-58
2021/09/18 12:08:57;;;;;;;;;;;25.40;54.90;;;;;;5075131;28;19928;-58
2021/09/18 12:11:24;;;;;;;;;;;25.40;54.90;;;;;;5074853;28;19931;-58
2021/09/18 12:13:53;;;;;;;;;;;25.40;54.90;;;;;;5073378;28;19924;-59
2021/09/18 12:16:21;;;;;;;;;;;25.40;55.00;;;;;;5075094;28;19925;-58
2021/09/18 12:18:49;;;;;;;;;;;25.40;55.00;;;;;;5061237;28;19928;-58
2021/09/18 12:21:18;;;;;;;;;;;25.40;55.00;;;;;;5074927;28;19946;-58
2021/09/18 12:23:46;;;;;;;;;;;25.40;55.00;;;;;;5057802;28;19925;-58
2021/09/18 12:26:14;;;;;;;;;;;25.40;55.10;;;;;;5074698;28;19932;-58
2021/09/18 12:28:41;;;;;;;;;;;25.40;55.10;;;;;;5074341;28;19959;-58
2021/09/18 12:31:14;;;;;;;;;;;25.40;55.10;;;;;;5073726;28;19928;-58
2021/09/18 12:33:41;;;;;;;;;;;25.40;55.10;;;;;;5073159;28;19925;-58
2021/09/18 12:36:10;;;;;;;;;;;25.30;55.00;;;;;;5057145;28;20012;-58
2021/09/18 12:38:38;;;;;;;;;;;25.30;55.10;;;;;;5057203;28;20323;-58
2021/09/18 12:41:09;;;;;;;;;;;25.30;55.10;;;;;;5072997;28;19947;-58
2021/09/18 12:43:36;;;;;;;;;;;25.30;55.10;;;;;;5074267;28;19928;-59
2021/09/18 12:46:08;;;;;;;;;;;25.40;55.10;;;;;;5073054;28;20008;-59
2021/09/18 12:48:35;;;;;;;;;;;25.30;55.10;;;;;;5074679;28;19931;-58
2021/09/18 12:51:04;;;;;;;;;;;25.30;55.40;;;;;;5072969;28;20002;-59
2021/09/18 12:53:33;;;;;;;;;;;25.30;55.20;;;;;;5073999;28;19925;-59
2021/09/18 12:56:09;;;;;;;;;;;25.30;55.20;;;;;;5072399;28;19924;-58
2021/09/18 12:58:36;;;;;;;;;;;25.30;55.30;;;;;;5073996;28;20016;-59
2021/09/18 13:01:05;;;;;;;;;;;25.20;55.30;;;;;;5075363;28;19925;-59
2021/09/18 13:03:34;;;;;;;;;;;25.30;55.30;;;;;;5073296;28;21328;-59
2021/09/18 13:06:07;;;;;;;;;;;25.30;55.30;;;;;;5073834;28;19990;-58
2021/09/18 13:08:40;;;;;;;;;;;25.20;55.20;;;;;;5074040;28;19924;-59
2021/09/18 13:11:23;;;;;;;;;;;25.20;55.30;;;;;;5073154;28;20015;-58
2021/09/18 13:13:50;;;;;;;;;;;25.20;55.30;;;;;;5083825;28;19924;-59
2021/09/18 13:16:18;;;;;;;;;;;25.20;55.40;;;;;;5072888;28;19929;-59
2021/09/18 13:19:04;;;;;;;;;;;25.20;55.30;;;;;;5055981;28;19932;-59
2021/09/18 13:21:32;;;;;;;;;;;25.20;55.40;;;;;;5067187;28;19982;-59
2021/09/18 13:23:59;;;;;;;;;;;25.20;55.40;;;;;;5073600;28;20380;-59
2021/09/18 13:26:27;;;;;;;;;;;25.20;55.30;;;;;;5073596;28;19966;-59
2021/09/18 13:28:54;;;;;;;;;;;25.20;55.30;;;;;;5066678;28;19925;-59
2021/09/18 13:31:21;;;;;;;;;;;25.20;55.30;;;;;;5095960;28;19970;-59
2021/09/18 13:33:47;;;;;;;;;;;25.20;55.30;;;;;;5079100;28;19932;-59
2021/09/18 13:36:15;;;;;;;;;;;25.20;55.30;;;;;;5090437;28;19924;-59
2021/09/18 13:38:42;;;;;;;;;;;25.30;55.30;;;;;;5087010;28;19924;-59
2021/09/18 13:41:08;;;;;;;;;;;25.20;55.20;;;;;;5072120;28;19977;-59
2021/09/18 13:43:35;;;;;;;;;;;25.30;55.20;;;;;;5071554;28;19924;-59
2021/09/18 13:46:02;;;;;;;;;;;25.20;55.20;;;;;;5057326;28;20316;-59
2021/09/18 13:48:29;;;;;;;;;;;25.20;55.20;;;;;;5057302;28;19931;-59
2021/09/18 13:50:57;;;;;;;;;;;25.20;55.20;;;;;;5072555;28;19951;-58
2021/09/18 13:53:24;;;;;;;;;;;25.20;55.20;;;;;;5073288;28;19925;-59
2021/09/18 13:55:51;;;;;;;;;;;25.20;55.20;;;;;;5070902;28;19924;-57
2021/09/18 13:58:18;;;;;;;;;;;25.20;55.30;;;;;;5073526;28;19982;-58
2021/09/18 14:00:45;;;;;;;;;;;25.20;55.30;;;;;;5073373;28;19985;-59
2021/09/18 14:03:12;;;;;;;;;;;25.10;55.30;;;;;;5072327;28;19925;-59
2021/09/18 14:05:40;;;;;;;;;;;25.10;55.40;;;;;;5071962;28;20517;-59
2021/09/18 14:08:08;;;;;;;;;;;25.10;55.40;;;;;;5073304;28;19928;-59
2021/09/18 14:10:35;;;;;;;;;;;25.10;55.30;;;;;;5070790;28;19974;-59
2021/09/18 14:13:02;;;;;;;;;;;25.10;55.40;;;;;;5070884;28;19952;-59
2021/09/18 14:15:29;;;;;;;;;;;25.10;55.40;;;;;;5060767;28;19932;-59
2021/09/18 14:17:56;;;;;;;;;;;25.10;55.40;;;;;;5056860;28;19925;-59
2021/09/18 14:20:23;;;;;;;;;;;25.10;55.40;;;;;;5063970;28;20004;-59
2021/09/18 14:22:50;;;;;;;;;;;25.10;55.40;;;;;;5072260;28;19924;-58
2021/09/18 14:25:20;;;;;;;;;;;25.10;55.20;;;;;;5098092;28;20080;-58
2021/09/18 14:27:51;;;;;;;;;;;25.10;55.30;;;;;;5069479;28;19967;-59